Search for airport 
image banner adimage banner adimage banner ad
image banner ad

KPOH - Pocahontas Muni

Located in Pocahontas, United States

ICAO - POH, IATA -

Data provided by Airmate  

General information

Coordinates: N42°44'34" W94°38'50"
Elevation is 1226 feet MSL.
Magnetic variation is 02° East
View others Airports in Iowa

Operational data

Special qualification required
Current time UTC:
Current local time:
Weather at : KFOD - Fort Dodge Rgnl ( 43 km )
METAR: KFOD 150956Z AUTO 34004KT 10SM CLR 14/10 A3012 RMK AO2 SLP221 T01440100
TAF: KFOD 150520Z 1506/1606 04004KT P6SM SKC
View NOTAMs / SUP AIP / TFR affecting this airport [VIEW]
Communications frequencies: [VIEW]

Runways:

RWY identifierQFULength (ft)Width (ft)SurfaceLDA (ft)
12121°410060ASPH
30301°410060ASPH
18185°1999135GRASS
361999135GRASS

Airport contact information

Address: Pocahontas United States

Satellite view of KPOH